Maskanah, Syria
Current Conditions -  °F | °C
As of 3:50 AM on Monday 24 Nov 2014 (Local Time) from LTAJ Reporting Station
Broken Clouds Broken Clouds  
Wind Chill: 37°   Ceiling: 10000
Heat Index: 41°   Visibility: 6mi
Dew Point: 34°   Wind: 6mph
Humidity: 76%   Direction: 20°NNE
Pressure: 29.94"   Gusts: NA
Location:  36.02°N, 38.08°E
Report Text: LTAJ 240050Z 02005KT 9999 SCT040 BKN100 05/01 Q1014 NOSIG
Loading
Personal Weather Stations






























Interactive Weather Map New forecast layout! Learn more

10-Day Weather Forecast

Advertisements
Track Severe Weather on mobile